Ponce de Leon, Florida
Current Conditions -  °F | °C
As of 11:15 AM on Saturday 20 Dec 2014 (Local Time) from K54J Reporting Station
Overcast Overcast  
Wind Chill: 51°   Ceiling: 700
Heat Index: 51°   Visibility: 10mi
Dew Point: 49°   Wind: 5mph
Humidity: 94%   Direction: 30°NNE
Pressure: 30.15"   Gusts: NA
Location:  30.72°N, 85.94°W
Report Text: K54J 201715Z AUTO 03004KT 10SM BKN007 BKN024 OVC060 11/10 A3015 RMK AO2 T01050096
Loading
Personal Weather Stations






























Interactive Weather Map New forecast layout! Learn more

10-Day Weather Forecast

Advertisements
Track Severe Weather on mobile